sensor_id;sensor_type;location;lat;lon;timestamp;pressure;altitude;pressure_sealevel;temperature;humidity
3464;BME280;3551;41.578;24.706;2023-04-28T00:01:30;91252.28;;;6.49;73.84
3464;BME280;3551;41.578;24.706;2023-04-28T00:04:07;91258.47;;;6.60;73.50
3464;BME280;3551;41.578;24.706;2023-04-28T00:09:45;91257.41;;;6.68;71.92
3464;BME280;3551;41.578;24.706;2023-04-28T00:12:24;91254.31;;;6.63;71.52
3464;BME280;3551;41.578;24.706;2023-04-28T00:15:19;91252.72;;;6.55;73.16
3464;BME280;3551;41.578;24.706;2023-04-28T00:17:58;91250.63;;;6.74;73.08
3464;BME280;3551;41.578;24.706;2023-04-28T00:20:40;91249.09;;;6.70;72.96
3464;BME280;3551;41.578;24.706;2023-04-28T00:24:26;91251.56;;;6.52;73.13
3464;BME280;3551;41.578;24.706;2023-04-28T00:27:12;91247.88;;;6.64;73.59
3464;BME280;3551;41.578;24.706;2023-04-28T00:29:59;91246.78;;;6.68;73.54
3464;BME280;3551;41.578;24.706;2023-04-28T00:32:29;91246.25;;;6.52;72.50
3464;BME280;3551;41.578;24.706;2023-04-28T00:35:59;91242.78;;;6.48;72.41
3464;BME280;3551;41.578;24.706;2023-04-28T00:38:38;91244.41;;;6.23;73.15
3464;BME280;3551;41.578;24.706;2023-04-28T00:41:26;91242.84;;;6.18;74.38
3464;BME280;3551;41.578;24.706;2023-04-28T00:44:18;91241.22;;;6.10;74.48
3464;BME280;3551;41.578;24.706;2023-04-28T00:46:46;91248.31;;;6.33;74.49
3464;BME280;3551;41.578;24.706;2023-04-28T00:49:37;91246.44;;;6.37;74.71
3464;BME280;3551;41.578;24.706;2023-04-28T00:52:26;91246.84;;;6.35;75.27
3464;BME280;3551;41.578;24.706;2023-04-28T01:06:52;91253.78;;;5.31;76.65
3464;BME280;3551;41.578;24.706;2023-04-28T01:09:32;91250.09;;;5.62;75.88
3464;BME280;3551;41.578;24.706;2023-04-28T01:12:04;91254.41;;;5.74;76.43
3464;BME280;3551;41.578;24.706;2023-04-28T01:15:23;91254.28;;;5.66;76.87
3464;BME280;3551;41.578;24.706;2023-04-28T01:18:03;91251.97;;;5.61;76.66
3464;BME280;3551;41.578;24.706;2023-04-28T01:20:31;91253.72;;;5.50;77.79
3464;BME280;3551;41.578;24.706;2023-04-28T01:26:03;91255.13;;;5.44;78.43
3464;BME280;3551;41.578;24.706;2023-04-28T01:29:14;91256.22;;;5.66;77.34
3464;BME280;3551;41.578;24.706;2023-04-28T01:31:48;91251.09;;;5.80;77.07
3464;BME280;3551;41.578;24.706;2023-04-28T01:37:23;91252.34;;;5.60;77.50
3464;BME280;3551;41.578;24.706;2023-04-28T01:39:59;91248.50;;;5.31;77.88
3464;BME280;3551;41.578;24.706;2023-04-28T01:45:40;91254.63;;;4.86;80.12
3464;BME280;3551;41.578;24.706;2023-04-28T01:48:13;91253.88;;;4.63;81.60
3464;BME280;3551;41.578;24.706;2023-04-28T01:54:13;91262.38;;;5.21;79.05
3464;BME280;3551;41.578;24.706;2023-04-28T01:57:12;91257.50;;;5.00;79.28
3464;BME280;3551;41.578;24.706;2023-04-28T02:00:41;91261.09;;;5.11;78.76
3464;BME280;3551;41.578;24.706;2023-04-28T02:03:03;91261.09;;;5.11;78.47
3464;BME280;3551;41.578;24.706;2023-04-28T02:06:00;91263.63;;;5.04;78.30
3464;BME280;3551;41.578;24.706;2023-04-28T02:08:41;91265.94;;;4.83;79.51
3464;BME280;3551;41.578;24.706;2023-04-28T02:13:38;91261.13;;;4.66;80.03
3464;BME280;3551;41.578;24.706;2023-04-28T02:18:59;91259.56;;;4.65;80.12
3464;BME280;3551;41.578;24.706;2023-04-28T02:22:00;91268.16;;;4.59;80.53
3464;BME280;3551;41.578;24.706;2023-04-28T02:24:56;91261.31;;;4.35;82.11
3464;BME280;3551;41.578;24.706;2023-04-28T02:27:54;91268.84;;;4.55;82.64
3464;BME280;3551;41.578;24.706;2023-04-28T02:33:38;91273.00;;;4.76;80.87
3464;BME280;3551;41.578;24.706;2023-04-28T02:36:29;91273.53;;;4.20;82.80
3464;BME280;3551;41.578;24.706;2023-04-28T02:39:18;91279.22;;;4.64;81.02
3464;BME280;3551;41.578;24.706;2023-04-28T02:42:10;91291.00;;;4.67;80.75
3464;BME280;3551;41.578;24.706;2023-04-28T02:44:51;91286.16;;;4.49;81.14
3464;BME280;3551;41.578;24.706;2023-04-28T02:47:34;91290.25;;;4.47;81.80
3464;BME280;3551;41.578;24.706;2023-04-28T02:50:28;91288.94;;;4.57;81.11
3464;BME280;3551;41.578;24.706;2023-04-28T02:53:28;91291.78;;;4.90;79.45
3464;BME280;3551;41.578;24.706;2023-04-28T02:56:24;91294.13;;;4.95;78.65
3464;BME280;3551;41.578;24.706;2023-04-28T03:02:22;91296.25;;;4.86;78.87
3464;BME280;3551;41.578;24.706;2023-04-28T03:05:21;91300.47;;;4.90;78.66
3464;BME280;3551;41.578;24.706;2023-04-28T03:07:54;91303.50;;;5.11;77.66
3464;BME280;3551;41.578;24.706;2023-04-28T03:14:01;91304.66;;;4.91;78.22
3464;BME280;3551;41.578;24.706;2023-04-28T03:17:16;91314.94;;;4.93;78.41
3464;BME280;3551;41.578;24.706;2023-04-28T03:20:13;91312.81;;;5.02;77.54
3464;BME280;3551;41.578;24.706;2023-04-28T03:23:29;91306.28;;;4.96;77.62
3464;BME280;3551;41.578;24.706;2023-04-28T03:26:25;91311.72;;;4.61;79.67
3464;BME280;3551;41.578;24.706;2023-04-28T03:32:36;91310.09;;;4.98;76.93
3464;BME280;3551;41.578;24.706;2023-04-28T03:38:00;91316.28;;;4.64;78.44
3464;BME280;3551;41.578;24.706;2023-04-28T03:41:26;91315.31;;;4.72;79.33
3464;BME280;3551;41.578;24.706;2023-04-28T03:44:42;91319.50;;;4.73;78.24
3464;BME280;3551;41.578;24.706;2023-04-28T03:47:32;91325.16;;;4.94;77.58
3464;BME280;3551;41.578;24.706;2023-04-28T03:55:54;91327.81;;;5.17;75.71
3464;BME280;3551;41.578;24.706;2023-04-28T03:58:52;91326.28;;;5.16;77.65
3464;BME280;3551;41.578;24.706;2023-04-28T04:01:35;91328.91;;;3.75;82.05
3464;BME280;3551;41.578;24.706;2023-04-28T04:04:43;91338.41;;;3.95;81.42
3464;BME280;3551;41.578;24.706;2023-04-28T04:10:21;91338.22;;;4.23;83.96
3464;BME280;3551;41.578;24.706;2023-04-28T04:13:32;91342.25;;;4.36;83.02
3464;BME280;3551;41.578;24.706;2023-04-28T04:17:28;91340.09;;;4.61;81.41
3464;BME280;3551;41.578;24.706;2023-04-28T04:19:08;91340.56;;;4.66;79.95
3464;BME280;3551;41.578;24.706;2023-04-28T04:22:36;91344.94;;;5.23;79.77
3464;BME280;3551;41.578;24.706;2023-04-28T04:25:38;91342.63;;;6.86;73.82
3464;BME280;3551;41.578;24.706;2023-04-28T04:28:53;91347.88;;;8.18;66.58
3464;BME280;3551;41.578;24.706;2023-04-28T04:31:42;91344.09;;;9.09;61.89
3464;BME280;3551;41.578;24.706;2023-04-28T04:34:36;91339.22;;;9.42;61.10
3464;BME280;3551;41.578;24.706;2023-04-28T04:37:36;91335.41;;;9.57;60.01
3464;BME280;3551;41.578;24.706;2023-04-28T04:40:45;91334.94;;;10.51;56.91
3464;BME280;3551;41.578;24.706;2023-04-28T04:43:31;91337.53;;;10.76;56.25
3464;BME280;3551;41.578;24.706;2023-04-28T04:46:22;91334.75;;;11.04;54.13
3464;BME280;3551;41.578;24.706;2023-04-28T04:49:08;91340.69;;;11.36;53.92
3464;BME280;3551;41.578;24.706;2023-04-28T04:51:41;91343.25;;;11.54;52.83
3464;BME280;3551;41.578;24.706;2023-04-28T04:54:32;91340.13;;;11.66;53.82
3464;BME280;3551;41.578;24.706;2023-04-28T04:57:25;91347.69;;;11.16;54.00
3464;BME280;3551;41.578;24.706;2023-04-28T05:03:19;91341.38;;;11.47;54.93
3464;BME280;3551;41.578;24.706;2023-04-28T05:06:28;91356.22;;;11.59;56.69
3464;BME280;3551;41.578;24.706;2023-04-28T05:09:01;91343.56;;;12.18;57.23
3464;BME280;3551;41.578;24.706;2023-04-28T05:12:02;91342.84;;;12.14;55.52
3464;BME280;3551;41.578;24.706;2023-04-28T05:20:26;91342.66;;;11.91;51.49
3464;BME280;3551;41.578;24.706;2023-04-28T05:23:09;91339.25;;;11.83;51.63
3464;BME280;3551;41.578;24.706;2023-04-28T05:25:41;91345.47;;;11.69;52.07
3464;BME280;3551;41.578;24.706;2023-04-28T05:34:55;91346.78;;;12.43;50.92
3464;BME280;3551;41.578;24.706;2023-04-28T05:38:11;91342.28;;;12.29;48.09
3464;BME280;3551;41.578;24.706;2023-04-28T05:40:47;91356.34;;;12.40;46.93
3464;BME280;3551;41.578;24.706;2023-04-28T05:43:13;91359.91;;;12.71;47.44
3464;BME280;3551;41.578;24.706;2023-04-28T05:45:40;91354.53;;;12.71;46.16
3464;BME280;3551;41.578;24.706;2023-04-28T05:48:07;91351.63;;;12.92;46.36
3464;BME280;3551;41.578;24.706;2023-04-28T05:50:34;91369.22;;;12.93;44.03
3464;BME280;3551;41.578;24.706;2023-04-28T05:53:00;91364.59;;;13.31;43.46
3464;BME280;3551;41.578;24.706;2023-04-28T05:55:29;91370.56;;;13.73;45.59
3464;BME280;3551;41.578;24.706;2023-04-28T05:57:56;91373.31;;;14.19;46.59
3464;BME280;3551;41.578;24.706;2023-04-28T06:00:24;91367.16;;;14.19;46.33
3464;BME280;3551;41.578;24.706;2023-04-28T06:02:51;91370.47;;;14.30;42.79
3464;BME280;3551;41.578;24.706;2023-04-28T06:05:17;91367.91;;;14.46;45.19
3464;BME280;3551;41.578;24.706;2023-04-28T06:07:44;91371.25;;;14.53;44.51
3464;BME280;3551;41.578;24.706;2023-04-28T06:10:12;91373.34;;;14.42;46.22
3464;BME280;3551;41.578;24.706;2023-04-28T06:12:40;91373.69;;;14.68;39.09
3464;BME280;3551;41.578;24.706;2023-04-28T06:15:07;91361.28;;;14.74;44.75
3464;BME280;3551;41.578;24.706;2023-04-28T06:17:34;91363.34;;;14.86;38.26
3464;BME280;3551;41.578;24.706;2023-04-28T06:20:00;91368.53;;;15.36;39.50
3464;BME280;3551;41.578;24.706;2023-04-28T06:22:27;91367.47;;;15.13;38.22
3464;BME280;3551;41.578;24.706;2023-04-28T06:24:54;91360.00;;;15.01;40.66
3464;BME280;3551;41.578;24.706;2023-04-28T06:27:21;91367.91;;;15.67;40.71
3464;BME280;3551;41.578;24.706;2023-04-28T06:29:49;91366.66;;;16.08;39.06
3464;BME280;3551;41.578;24.706;2023-04-28T06:32:16;91365.63;;;16.02;39.84
3464;BME280;3551;41.578;24.706;2023-04-28T06:34:42;91365.13;;;16.07;40.13
3464;BME280;3551;41.578;24.706;2023-04-28T06:37:09;91367.81;;;16.07;37.51
3464;BME280;3551;41.578;24.706;2023-04-28T06:39:36;91362.28;;;16.14;37.58
3464;BME280;3551;41.578;24.706;2023-04-28T06:42:02;91359.81;;;16.52;37.12
3464;BME280;3551;41.578;24.706;2023-04-28T06:44:29;91359.66;;;16.26;36.58
3464;BME280;3551;41.578;24.706;2023-04-28T06:46:57;91357.38;;;16.25;38.92
3464;BME280;3551;41.578;24.706;2023-04-28T06:49:24;91353.81;;;16.44;36.96
3464;BME280;3551;41.578;24.706;2023-04-28T06:51:50;91351.31;;;16.05;37.04
3464;BME280;3551;41.578;24.706;2023-04-28T06:54:17;91357.63;;;15.98;36.66
3464;BME280;3551;41.578;24.706;2023-04-28T06:56:44;91355.03;;;16.11;33.81
3464;BME280;3551;41.578;24.706;2023-04-28T06:59:11;91353.41;;;16.29;35.68
3464;BME280;3551;41.578;24.706;2023-04-28T07:01:37;91352.53;;;15.84;35.70
3464;BME280;3551;41.578;24.706;2023-04-28T07:04:06;91359.84;;;15.48;37.86
3464;BME280;3551;41.578;24.706;2023-04-28T07:06:32;91362.00;;;15.17;37.94
3464;BME280;3551;41.578;24.706;2023-04-28T07:09:00;91367.97;;;14.42;40.61
3464;BME280;3551;41.578;24.706;2023-04-28T07:11:27;91360.88;;;13.79;41.99
3464;BME280;3551;41.578;24.706;2023-04-28T07:13:53;91360.34;;;13.61;39.95
3464;BME280;3551;41.578;24.706;2023-04-28T07:16:20;91364.97;;;13.33;42.86
3464;BME280;3551;41.578;24.706;2023-04-28T07:18:47;91363.34;;;13.06;38.44
3464;BME280;3551;41.578;24.706;2023-04-28T07:21:15;91367.03;;;13.49;40.91
3464;BME280;3551;41.578;24.706;2023-04-28T07:23:42;91361.09;;;13.01;44.70
3464;BME280;3551;41.578;24.706;2023-04-28T07:26:10;91364.66;;;12.90;43.92
3464;BME280;3551;41.578;24.706;2023-04-28T07:28:40;91360.03;;;12.61;45.61
3464;BME280;3551;41.578;24.706;2023-04-28T07:31:07;91360.88;;;12.51;42.33
3464;BME280;3551;41.578;24.706;2023-04-28T07:33:33;91362.66;;;12.64;44.38
3464;BME280;3551;41.578;24.706;2023-04-28T07:36:01;91354.72;;;12.54;44.67
3464;BME280;3551;41.578;24.706;2023-04-28T07:38:29;91360.03;;;12.94;44.18
3464;BME280;3551;41.578;24.706;2023-04-28T07:40:55;91353.75;;;13.38;44.91
3464;BME280;3551;41.578;24.706;2023-04-28T07:43:22;91359.97;;;13.62;42.69
3464;BME280;3551;41.578;24.706;2023-04-28T07:45:49;91356.22;;;13.83;42.80
3464;BME280;3551;41.578;24.706;2023-04-28T07:48:16;91361.97;;;14.31;36.04
3464;BME280;3551;41.578;24.706;2023-04-28T07:50:43;91364.75;;;14.51;35.89
3464;BME280;3551;41.578;24.706;2023-04-28T07:53:09;91357.47;;;14.71;35.64
3464;BME280;3551;41.578;24.706;2023-04-28T07:55:37;91360.94;;;14.48;33.41
3464;BME280;3551;41.578;24.706;2023-04-28T07:58:06;91370.28;;;15.26;33.50
3464;BME280;3551;41.578;24.706;2023-04-28T08:00:32;91368.22;;;15.34;31.38
3464;BME280;3551;41.578;24.706;2023-04-28T08:02:59;91368.09;;;15.41;33.92
3464;BME280;3551;41.578;24.706;2023-04-28T08:05:26;91365.44;;;15.37;34.97
3464;BME280;3551;41.578;24.706;2023-04-28T08:07:53;91359.94;;;15.80;35.34
3464;BME280;3551;41.578;24.706;2023-04-28T08:10:19;91359.72;;;15.55;36.13
3464;BME280;3551;41.578;24.706;2023-04-28T08:12:47;91362.19;;;15.46;33.20
3464;BME280;3551;41.578;24.706;2023-04-28T08:15:14;91361.63;;;14.29;33.69
3464;BME280;3551;41.578;24.706;2023-04-28T08:17:41;91358.44;;;13.88;33.85
3464;BME280;3551;41.578;24.706;2023-04-28T08:20:08;91355.22;;;13.43;34.83
3464;BME280;3551;41.578;24.706;2023-04-28T08:22:35;91349.06;;;13.73;35.01
3464;BME280;3551;41.578;24.706;2023-04-28T08:25:02;91353.81;;;14.15;34.82
3464;BME280;3551;41.578;24.706;2023-04-28T08:27:29;91351.03;;;14.19;36.13
3464;BME280;3551;41.578;24.706;2023-04-28T08:29:58;91348.09;;;13.86;39.92
3464;BME280;3551;41.578;24.706;2023-04-28T08:32:25;91346.97;;;13.84;40.38
3464;BME280;3551;41.578;24.706;2023-04-28T08:34:52;91352.03;;;13.51;38.00
3464;BME280;3551;41.578;24.706;2023-04-28T08:37:18;91338.78;;;13.37;41.60
3464;BME280;3551;41.578;24.706;2023-04-28T08:39:45;91338.59;;;13.25;38.07
3464;BME280;3551;41.578;24.706;2023-04-28T08:42:11;91340.63;;;12.80;36.96
3464;BME280;3551;41.578;24.706;2023-04-28T08:44:39;91346.78;;;12.43;38.03
3464;BME280;3551;41.578;24.706;2023-04-28T08:47:10;91336.88;;;12.74;37.33
3464;BME280;3551;41.578;24.706;2023-04-28T08:49:37;91339.06;;;12.82;37.25
3464;BME280;3551;41.578;24.706;2023-04-28T08:52:08;91340.41;;;12.26;37.95
3464;BME280;3551;41.578;24.706;2023-04-28T08:54:35;91338.78;;;11.92;38.60
3464;BME280;3551;41.578;24.706;2023-04-28T08:57:03;91337.31;;;12.69;38.70
3464;BME280;3551;41.578;24.706;2023-04-28T08:59:30;91335.91;;;13.25;37.26
3464;BME280;3551;41.578;24.706;2023-04-28T09:01:57;91339.31;;;13.82;37.53
3464;BME280;3551;41.578;24.706;2023-04-28T09:04:26;91327.00;;;13.85;36.30
3464;BME280;3551;41.578;24.706;2023-04-28T09:06:52;91326.56;;;14.36;38.22
3464;BME280;3551;41.578;24.706;2023-04-28T09:09:19;91331.09;;;14.16;38.53
3464;BME280;3551;41.578;24.706;2023-04-28T09:11:49;91324.13;;;13.95;38.65
3464;BME280;3551;41.578;24.706;2023-04-28T09:14:16;91320.06;;;14.10;37.55
3464;BME280;3551;41.578;24.706;2023-04-28T09:16:43;91329.13;;;14.20;37.88
3464;BME280;3551;41.578;24.706;2023-04-28T09:19:09;91316.50;;;14.17;35.27
3464;BME280;3551;41.578;24.706;2023-04-28T09:21:46;91314.16;;;14.42;36.38
3464;BME280;3551;41.578;24.706;2023-04-28T09:24:24;91310.75;;;14.61;36.22
3464;BME280;3551;41.578;24.706;2023-04-28T09:26:51;91312.56;;;14.88;36.37
3464;BME280;3551;41.578;24.706;2023-04-28T09:29:18;91316.69;;;14.06;35.45
3464;BME280;3551;41.578;24.706;2023-04-28T09:31:44;91304.97;;;14.17;38.12
3464;BME280;3551;41.578;24.706;2023-04-28T09:34:11;91311.31;;;14.73;39.54
3464;BME280;3551;41.578;24.706;2023-04-28T09:36:38;91310.00;;;14.81;36.22
3464;BME280;3551;41.578;24.706;2023-04-28T09:39:06;91306.59;;;13.87;36.94
3464;BME280;3551;41.578;24.706;2023-04-28T09:41:36;91295.38;;;14.16;36.51
3464;BME280;3551;41.578;24.706;2023-04-28T09:44:14;91283.69;;;14.69;40.21
3464;BME280;3551;41.578;24.706;2023-04-28T09:46:41;91287.28;;;14.82;42.88
3464;BME280;3551;41.578;24.706;2023-04-28T09:49:09;91288.94;;;14.95;42.38
3464;BME280;3551;41.578;24.706;2023-04-28T09:51:36;91278.13;;;15.15;40.59
3464;BME280;3551;41.578;24.706;2023-04-28T09:54:05;91295.16;;;14.73;39.30
3464;BME280;3551;41.578;24.706;2023-04-28T09:56:33;91281.13;;;15.20;41.13
3464;BME280;3551;41.578;24.706;2023-04-28T09:59:03;91274.47;;;15.25;36.25
3464;BME280;3551;41.578;24.706;2023-04-28T10:01:31;91279.09;;;15.25;38.88
3464;BME280;3551;41.578;24.706;2023-04-28T10:03:58;91275.34;;;15.02;37.02
3464;BME280;3551;41.578;24.706;2023-04-28T10:06:26;91271.91;;;14.82;37.12
3464;BME280;3551;41.578;24.706;2023-04-28T10:08:53;91265.03;;;15.17;37.75
3464;BME280;3551;41.578;24.706;2023-04-28T10:11:22;91260.75;;;15.19;36.94
3464;BME280;3551;41.578;24.706;2023-04-28T10:13:51;91261.81;;;15.06;36.00
3464;BME280;3551;41.578;24.706;2023-04-28T10:16:18;91269.94;;;15.38;35.17
3464;BME280;3551;41.578;24.706;2023-04-28T10:18:45;91263.53;;;15.52;34.03
3464;BME280;3551;41.578;24.706;2023-04-28T10:21:13;91258.28;;;14.70;34.00
3464;BME280;3551;41.578;24.706;2023-04-28T10:23:46;91258.91;;;14.77;36.52
3464;BME280;3551;41.578;24.706;2023-04-28T10:26:17;91270.06;;;13.90;36.38
3464;BME280;3551;41.578;24.706;2023-04-28T10:28:45;91260.41;;;13.69;37.81
3464;BME280;3551;41.578;24.706;2023-04-28T10:31:14;91261.66;;;13.38;37.57
3464;BME280;3551;41.578;24.706;2023-04-28T10:33:41;91260.31;;;13.26;38.68
3464;BME280;3551;41.578;24.706;2023-04-28T10:36:08;91255.63;;;13.57;39.14
3464;BME280;3551;41.578;24.706;2023-04-28T10:38:35;91252.53;;;14.05;39.16
3464;BME280;3551;41.578;24.706;2023-04-28T10:41:30;91253.03;;;14.20;37.90
3464;BME280;3551;41.578;24.706;2023-04-28T10:43:57;91251.31;;;14.52;37.18
3464;BME280;3551;41.578;24.706;2023-04-28T10:46:25;91247.25;;;14.64;37.98
3464;BME280;3551;41.578;24.706;2023-04-28T10:48:55;91246.66;;;14.33;37.42
3464;BME280;3551;41.578;24.706;2023-04-28T10:51:28;91239.16;;;14.84;37.53
3464;BME280;3551;41.578;24.706;2023-04-28T10:59:40;91232.53;;;15.60;35.61
3464;BME280;3551;41.578;24.706;2023-04-28T11:05:14;91234.47;;;15.23;35.02
3464;BME280;3551;41.578;24.706;2023-04-28T11:13:25;91222.72;;;14.98;38.03
3464;BME280;3551;41.578;24.706;2023-04-28T11:16:01;91228.59;;;14.93;37.01
3464;BME280;3551;41.578;24.706;2023-04-28T11:18:29;91238.47;;;14.60;37.39
3464;BME280;3551;41.578;24.706;2023-04-28T11:20:59;91256.38;;;14.04;38.35
3464;BME280;3551;41.578;24.706;2023-04-28T11:23:27;91244.00;;;13.87;38.37
3464;BME280;3551;41.578;24.706;2023-04-28T11:25:58;91248.81;;;14.19;39.06
3464;BME280;3551;41.578;24.706;2023-04-28T11:28:27;91248.91;;;14.15;37.83
3464;BME280;3551;41.578;24.706;2023-04-28T11:31:08;91240.69;;;14.02;38.56
3464;BME280;3551;41.578;24.706;2023-04-28T11:33:35;91246.78;;;14.26;39.77
3464;BME280;3551;41.578;24.706;2023-04-28T11:36:09;91252.34;;;14.16;39.93
3464;BME280;3551;41.578;24.706;2023-04-28T11:38:47;91259.22;;;13.47;40.67
3464;BME280;3551;41.578;24.706;2023-04-28T11:41:14;91250.59;;;13.59;40.06
3464;BME280;3551;41.578;24.706;2023-04-28T11:43:41;91250.81;;;13.72;40.45
3464;BME280;3551;41.578;24.706;2023-04-28T11:46:07;91254.53;;;13.28;41.83
3464;BME280;3551;41.578;24.706;2023-04-28T11:48:35;91252.03;;;12.83;42.84
3464;BME280;3551;41.578;24.706;2023-04-28T11:51:01;91259.19;;;12.93;43.34
3464;BME280;3551;41.578;24.706;2023-04-28T11:53:41;91259.38;;;13.10;43.22
3464;BME280;3551;41.578;24.706;2023-04-28T11:56:08;91273.28;;;13.31;43.44
3464;BME280;3551;41.578;24.706;2023-04-28T11:58:37;91271.28;;;13.09;43.86
3464;BME280;3551;41.578;24.706;2023-04-28T12:01:08;91272.06;;;13.06;44.43
3464;BME280;3551;41.578;24.706;2023-04-28T12:03:41;91264.22;;;13.22;43.84
3464;BME280;3551;41.578;24.706;2023-04-28T12:06:08;91264.19;;;13.48;43.57
3464;BME280;3551;41.578;24.706;2023-04-28T12:08:34;91257.25;;;13.51;42.93
3464;BME280;3551;41.578;24.706;2023-04-28T12:11:09;91263.81;;;13.96;42.76
3464;BME280;3551;41.578;24.706;2023-04-28T12:13:37;91257.09;;;14.08;42.58
3464;BME280;3551;41.578;24.706;2023-04-28T12:16:07;91255.13;;;14.12;41.60
3464;BME280;3551;41.578;24.706;2023-04-28T12:18:34;91254.03;;;13.06;44.03
3464;BME280;3551;41.578;24.706;2023-04-28T12:21:03;91257.69;;;12.59;45.37
3464;BME280;3551;41.578;24.706;2023-04-28T12:23:30;91249.81;;;12.45;45.68
3464;BME280;3551;41.578;24.706;2023-04-28T12:25:57;91256.28;;;12.81;46.15
3464;BME280;3551;41.578;24.706;2023-04-28T12:28:36;91248.66;;;12.46;47.34
3464;BME280;3551;41.578;24.706;2023-04-28T12:31:04;91255.25;;;12.37;47.60
3464;BME280;3551;41.578;24.706;2023-04-28T12:33:31;91240.97;;;12.14;48.34
3464;BME280;3551;41.578;24.706;2023-04-28T12:36:02;91248.56;;;12.19;49.31
3464;BME280;3551;41.578;24.706;2023-04-28T12:38:30;91250.84;;;12.20;49.05
3464;BME280;3551;41.578;24.706;2023-04-28T12:40:58;91246.38;;;12.10;47.82
3464;BME280;3551;41.578;24.706;2023-04-28T12:43:24;91243.16;;;11.85;48.22
3464;BME280;3551;41.578;24.706;2023-04-28T12:45:54;91234.38;;;11.84;48.78
3464;BME280;3551;41.578;24.706;2023-04-28T12:48:21;91244.53;;;12.00;49.45
3464;BME280;3551;41.578;24.706;2023-04-28T12:50:49;91243.38;;;12.01;48.74
3464;BME280;3551;41.578;24.706;2023-04-28T12:53:16;91247.88;;;12.11;48.26
3464;BME280;3551;41.578;24.706;2023-04-28T12:55:42;91240.38;;;12.33;49.31
3464;BME280;3551;41.578;24.706;2023-04-28T12:58:09;91238.69;;;12.76;47.58
3464;BME280;3551;41.578;24.706;2023-04-28T13:00:36;91229.56;;;12.70;48.72
3464;BME280;3551;41.578;24.706;2023-04-28T13:03:04;91232.41;;;12.60;49.19
3464;BME280;3551;41.578;24.706;2023-04-28T13:05:30;91238.69;;;12.76;48.84
3464;BME280;3551;41.578;24.706;2023-04-28T13:07:59;91226.13;;;12.70;48.96
3464;BME280;3551;41.578;24.706;2023-04-28T13:10:25;91223.47;;;12.96;48.78
3464;BME280;3551;41.578;24.706;2023-04-28T13:12:53;91222.41;;;12.64;48.00
3464;BME280;3551;41.578;24.706;2023-04-28T13:15:19;91226.47;;;12.41;49.04
3464;BME280;3551;41.578;24.706;2023-04-28T13:17:46;91219.03;;;11.85;50.42
3464;BME280;3551;41.578;24.706;2023-04-28T13:20:14;91219.28;;;12.01;50.46
3464;BME280;3551;41.578;24.706;2023-04-28T13:22:41;91220.53;;;11.90;50.18
3464;BME280;3551;41.578;24.706;2023-04-28T13:25:08;91216.59;;;12.01;50.26
3464;BME280;3551;41.578;24.706;2023-04-28T13:27:35;91214.63;;;12.05;51.32
3464;BME280;3551;41.578;24.706;2023-04-28T13:30:02;91218.22;;;11.92;50.70
3464;BME280;3551;41.578;24.706;2023-04-28T13:32:29;91227.50;;;11.80;50.85
3464;BME280;3551;41.578;24.706;2023-04-28T13:34:56;91223.69;;;11.81;52.29
3464;BME280;3551;41.578;24.706;2023-04-28T13:37:24;91232.84;;;11.83;51.98
3464;BME280;3551;41.578;24.706;2023-04-28T13:39:51;91229.47;;;11.76;52.33
3464;BME280;3551;41.578;24.706;2023-04-28T13:42:18;91233.69;;;11.73;52.83
3464;BME280;3551;41.578;24.706;2023-04-28T13:44:44;91238.81;;;11.98;52.63
3464;BME280;3551;41.578;24.706;2023-04-28T13:47:13;91240.75;;;11.94;52.50
3464;BME280;3551;41.578;24.706;2023-04-28T13:49:40;91234.38;;;11.84;52.47
3464;BME280;3551;41.578;24.706;2023-04-28T13:52:07;91231.44;;;12.09;52.34
3464;BME280;3551;41.578;24.706;2023-04-28T13:54:35;91238.38;;;12.03;51.86
3464;BME280;3551;41.578;24.706;2023-04-28T13:57:02;91224.97;;;11.59;52.38
3464;BME280;3551;41.578;24.706;2023-04-28T13:59:29;91228.50;;;11.52;52.08
3464;BME280;3551;41.578;24.706;2023-04-28T14:01:56;91230.66;;;11.68;52.76
3464;BME280;3551;41.578;24.706;2023-04-28T14:04:22;91223.72;;;11.74;52.56
3464;BME280;3551;41.578;24.706;2023-04-28T14:06:49;91234.28;;;11.92;52.33
3464;BME280;3551;41.578;24.706;2023-04-28T14:09:16;91229.81;;;12.19;51.60
3464;BME280;3551;41.578;24.706;2023-04-28T14:11:44;91228.41;;;12.41;51.79
3464;BME280;3551;41.578;24.706;2023-04-28T14:14:11;91240.28;;;12.74;51.87
3464;BME280;3551;41.578;24.706;2023-04-28T14:16:38;91228.63;;;12.54;49.91
3464;BME280;3551;41.578;24.706;2023-04-28T14:19:05;91224.16;;;12.74;51.26
3464;BME280;3551;41.578;24.706;2023-04-28T14:21:32;91233.75;;;12.41;51.44
3464;BME280;3551;41.578;24.706;2023-04-28T14:23:59;91240.09;;;12.24;51.94
3464;BME280;3551;41.578;24.706;2023-04-28T14:26:26;91228.50;;;12.34;52.01
3464;BME280;3551;41.578;24.706;2023-04-28T14:28:54;91235.03;;;12.29;52.18
3464;BME280;3551;41.578;24.706;2023-04-28T14:31:20;91234.53;;;12.41;52.78
3464;BME280;3551;41.578;24.706;2023-04-28T14:33:47;91232.25;;;12.70;52.55
3464;BME280;3551;41.578;24.706;2023-04-28T14:36:14;91233.97;;;12.23;52.01
3464;BME280;3551;41.578;24.706;2023-04-28T14:38:40;91235.94;;;11.82;52.87
3464;BME280;3551;41.578;24.706;2023-04-28T14:41:07;91233.56;;;11.88;52.57
3464;BME280;3551;41.578;24.706;2023-04-28T14:43:34;91227.31;;;11.57;53.55
3464;BME280;3551;41.578;24.706;2023-04-28T14:46:02;91225.84;;;11.49;53.95
3464;BME280;3551;41.578;24.706;2023-04-28T14:48:30;91227.16;;;11.78;53.57
3464;BME280;3551;41.578;24.706;2023-04-28T14:50:57;91228.03;;;12.05;52.47
3464;BME280;3551;41.578;24.706;2023-04-28T14:53:24;91218.81;;;11.65;52.94
3464;BME280;3551;41.578;24.706;2023-04-28T14:55:50;91222.28;;;11.62;53.72
3464;BME280;3551;41.578;24.706;2023-04-28T14:58:17;91228.03;;;11.61;53.23
3464;BME280;3551;41.578;24.706;2023-04-28T15:00:44;91221.47;;;11.69;52.76
3464;BME280;3551;41.578;24.706;2023-04-28T15:03:12;91233.38;;;11.64;52.42
3464;BME280;3551;41.578;24.706;2023-04-28T15:05:39;91234.09;;;11.68;52.70
3464;BME280;3551;41.578;24.706;2023-04-28T15:08:06;91221.50;;;12.06;52.64
3464;BME280;3551;41.578;24.706;2023-04-28T15:10:36;91230.66;;;12.09;52.28
3464;BME280;3551;41.578;24.706;2023-04-28T15:13:03;91233.13;;;11.93;52.69
3464;BME280;3551;41.578;24.706;2023-04-28T15:15:30;91230.94;;;11.84;53.11
3464;BME280;3551;41.578;24.706;2023-04-28T15:17:59;91230.47;;;11.93;52.98